Magic Sun — D54895U — position and weather

sailwx.info

Track history (hours):
 
Tides and Currents Weather Stations Pressure Air Temp Water Temp Dewpoint Dewpoint Depression Visibility Wind Speed Wind Dir Waves Ship Positions

Magic Sun

Last reported at 2015-Aug-29 15:26 UTC. Time now 2015-Aug-29 23:38 UTC.
Position N 49°29' E 000°06'.

Length 10 m.

Type: Sailing vessel. MMSI: 227018810.

Date/timePositionNaut miles runAvg speedWind from/ knotsBaromVisibWave heightAir tempDewpointWater temp
2015-Aug-29 15:26N 49°29' E 000°06'2 1.8
2015-Aug-29 14:33N 49°30' E 000°03'3 2.6
2015-Aug-29 13:33N 49°31' W 000°01'2 2.1
2015-Aug-29 12:33N 49°31' W 000°04'4 3.5
2015-Aug-29 11:33N 49°28' W 000°05'3 2.7
2015-Aug-29 10:34N 49°26' W 000°02'4 4.1
2015-Aug-29 09:33N 49°29' E 000°02'3 2.6
2015-Aug-29 08:33N 49°29' E 000°06'0 0.0
2015-Aug-29 07:33N 49°29' E 000°06'  
2015-Aug-22 14:07N 49°29' E 000°06'0 0.0
2015-Aug-22 13:31N 49°29' E 000°06'0 0.0
2015-Aug-22 12:30N 49°29' E 000°06'0 0.0
2015-Aug-22 11:32N 49°29' E 000°06'  
Track history (hours):
 
Tides and Currents Weather Stations Pressure Air Temp Water Temp Dewpoint Dewpoint Depression Visibility Wind Speed Wind Dir Waves Ship Positions

Magic Sun

Last reported at 2015-Aug-29 15:26 UTC. Time now 2015-Aug-29 23:38 UTC.
Position N 49°29' E 000°06'.

Length 10 m.

Type: Sailing vessel. MMSI: 227018810.

Date/timePositionNaut miles runAvg speedWind from/ knotsBaromVisibWave heightAir tempDewpointWater temp
2015-Aug-29 15:26N 49°29' E 000°06'2 1.8
2015-Aug-29 14:33N 49°30' E 000°03'3 2.6
2015-Aug-29 13:33N 49°31' W 000°01'2 2.1
2015-Aug-29 12:33N 49°31' W 000°04'4 3.5
2015-Aug-29 11:33N 49°28' W 000°05'3 2.7
2015-Aug-29 10:34N 49°26' W 000°02'4 4.1
2015-Aug-29 09:33N 49°29' E 000°02'3 2.6
2015-Aug-29 08:33N 49°29' E 000°06'0 0.0
2015-Aug-29 07:33N 49°29' E 000°06'  
2015-Aug-22 14:07N 49°29' E 000°06'0 0.0
2015-Aug-22 13:31N 49°29' E 000°06'0 0.0
2015-Aug-22 12:30N 49°29' E 000°06'0 0.0
2015-Aug-22 11:32N 49°29' E 000°06'  

Dump ship's entire track history